sensor_id;sensor_type;location;lat;lon;timestamp;temperature;humidity
18091;DHT22;9172;49.948;9.208;2023-03-01T00:01:23;0.60;99.90
18091;DHT22;9172;49.948;9.208;2023-03-01T00:03:54;0.60;99.90
18091;DHT22;9172;49.948;9.208;2023-03-01T00:06:23;0.60;99.90
18091;DHT22;9172;49.948;9.208;2023-03-01T00:08:53;0.50;99.90
18091;DHT22;9172;49.948;9.208;2023-03-01T00:11:23;0.50;99.90
18091;DHT22;9172;49.948;9.208;2023-03-01T00:13:54;0.60;99.90
18091;DHT22;9172;49.948;9.208;2023-03-01T00:16:25;0.50;99.90
18091;DHT22;9172;49.948;9.208;2023-03-01T00:18:55;0.50;99.90
18091;DHT22;9172;49.948;9.208;2023-03-01T00:21:26;0.50;99.90
18091;DHT22;9172;49.948;9.208;2023-03-01T00:23:56;0.60;99.90
18091;DHT22;9172;49.948;9.208;2023-03-01T00:26:25;0.70;99.90
18091;DHT22;9172;49.948;9.208;2023-03-01T00:28:54;0.80;99.90
18091;DHT22;9172;49.948;9.208;2023-03-01T00:31:27;0.80;99.90
18091;DHT22;9172;49.948;9.208;2023-03-01T00:33:58;0.90;99.90
18091;DHT22;9172;49.948;9.208;2023-03-01T00:36:29;0.80;99.90
18091;DHT22;9172;49.948;9.208;2023-03-01T00:39:00;0.80;99.90
18091;DHT22;9172;49.948;9.208;2023-03-01T00:41:29;0.80;99.90
18091;DHT22;9172;49.948;9.208;2023-03-01T00:44:01;0.80;99.90
18091;DHT22;9172;49.948;9.208;2023-03-01T00:46:30;0.80;99.90
18091;DHT22;9172;49.948;9.208;2023-03-01T00:49:00;0.70;99.90
18091;DHT22;9172;49.948;9.208;2023-03-01T00:51:30;0.70;99.90
18091;DHT22;9172;49.948;9.208;2023-03-01T00:54:01;0.60;99.90
18091;DHT22;9172;49.948;9.208;2023-03-01T00:56:31;0.60;99.90
18091;DHT22;9172;49.948;9.208;2023-03-01T00:59:00;0.60;99.90
18091;DHT22;9172;49.948;9.208;2023-03-01T01:01:30;0.50;99.90
18091;DHT22;9172;49.948;9.208;2023-03-01T01:04:02;0.50;99.90
18091;DHT22;9172;49.948;9.208;2023-03-01T01:06:33;0.50;99.90
18091;DHT22;9172;49.948;9.208;2023-03-01T01:09:04;0.50;99.90
18091;DHT22;9172;49.948;9.208;2023-03-01T01:11:34;0.60;99.90
18091;DHT22;9172;49.948;9.208;2023-03-01T01:14:04;0.50;99.90
18091;DHT22;9172;49.948;9.208;2023-03-01T01:16:33;0.50;99.90
18091;DHT22;9172;49.948;9.208;2023-03-01T01:19:03;0.40;99.90
18091;DHT22;9172;49.948;9.208;2023-03-01T01:24:09;0.40;99.90
18091;DHT22;9172;49.948;9.208;2023-03-01T01:26:38;0.40;99.90
18091;DHT22;9172;49.948;9.208;2023-03-01T01:29:07;0.50;99.90
18091;DHT22;9172;49.948;9.208;2023-03-01T01:31:38;0.50;99.90
18091;DHT22;9172;49.948;9.208;2023-03-01T01:34:12;0.60;99.90
18091;DHT22;9172;49.948;9.208;2023-03-01T01:36:40;0.60;99.90
18091;DHT22;9172;49.948;9.208;2023-03-01T01:39:10;0.70;99.90
18091;DHT22;9172;49.948;9.208;2023-03-01T01:41:41;0.70;99.90
18091;DHT22;9172;49.948;9.208;2023-03-01T01:44:13;0.70;99.90
18091;DHT22;9172;49.948;9.208;2023-03-01T01:46:45;0.70;99.90
18091;DHT22;9172;49.948;9.208;2023-03-01T01:49:22;0.70;99.90
18091;DHT22;9172;49.948;9.208;2023-03-01T01:51:51;0.80;99.90
18091;DHT22;9172;49.948;9.208;2023-03-01T01:54:23;0.80;99.90
18091;DHT22;9172;49.948;9.208;2023-03-01T01:56:56;0.80;99.90
18091;DHT22;9172;49.948;9.208;2023-03-01T01:59:26;0.80;99.90
18091;DHT22;9172;49.948;9.208;2023-03-01T02:01:56;0.70;99.90
18091;DHT22;9172;49.948;9.208;2023-03-01T02:04:26;0.70;99.90
18091;DHT22;9172;49.948;9.208;2023-03-01T02:06:58;0.60;99.90
18091;DHT22;9172;49.948;9.208;2023-03-01T02:12:05;0.50;99.90
18091;DHT22;9172;49.948;9.208;2023-03-01T02:14:35;0.50;99.90
18091;DHT22;9172;49.948;9.208;2023-03-01T02:17:04;0.40;99.90
18091;DHT22;9172;49.948;9.208;2023-03-01T02:19:40;0.40;99.90
18091;DHT22;9172;49.948;9.208;2023-03-01T02:22:13;0.30;99.90
18091;DHT22;9172;49.948;9.208;2023-03-01T02:24:48;0.30;99.90
18091;DHT22;9172;49.948;9.208;2023-03-01T02:27:18;0.40;99.90
18091;DHT22;9172;49.948;9.208;2023-03-01T02:29:49;0.40;99.90
18091;DHT22;9172;49.948;9.208;2023-03-01T02:32:18;0.40;99.90
18091;DHT22;9172;49.948;9.208;2023-03-01T02:34:50;0.50;99.90
18091;DHT22;9172;49.948;9.208;2023-03-01T02:37:20;0.50;99.90
18091;DHT22;9172;49.948;9.208;2023-03-01T02:39:53;0.50;99.90
18091;DHT22;9172;49.948;9.208;2023-03-01T02:42:28;0.40;99.90
18091;DHT22;9172;49.948;9.208;2023-03-01T02:44:56;0.30;99.90
18091;DHT22;9172;49.948;9.208;2023-03-01T02:47:25;0.20;99.90
18091;DHT22;9172;49.948;9.208;2023-03-01T02:49:54;0.20;99.90
18091;DHT22;9172;49.948;9.208;2023-03-01T02:52:33;0.30;99.90
18091;DHT22;9172;49.948;9.208;2023-03-01T02:55:03;0.30;99.90
18091;DHT22;9172;49.948;9.208;2023-03-01T02:57:35;0.20;99.90
18091;DHT22;9172;49.948;9.208;2023-03-01T03:00:07;0.30;99.90
18091;DHT22;9172;49.948;9.208;2023-03-01T03:02:37;0.30;99.90
18091;DHT22;9172;49.948;9.208;2023-03-01T03:05:10;0.20;99.90
18091;DHT22;9172;49.948;9.208;2023-03-01T03:07:40;0.20;99.90
18091;DHT22;9172;49.948;9.208;2023-03-01T03:10:13;0.20;99.90
18091;DHT22;9172;49.948;9.208;2023-03-01T03:12:42;0.10;99.90
18091;DHT22;9172;49.948;9.208;2023-03-01T03:15:11;0.10;99.90
18091;DHT22;9172;49.948;9.208;2023-03-01T03:17:41;0.10;99.90
18091;DHT22;9172;49.948;9.208;2023-03-01T03:20:14;0.10;99.90
18091;DHT22;9172;49.948;9.208;2023-03-01T03:22:45;0.10;99.90
18091;DHT22;9172;49.948;9.208;2023-03-01T03:25:14;0.10;99.90
18091;DHT22;9172;49.948;9.208;2023-03-01T03:27:45;0.20;99.90
18091;DHT22;9172;49.948;9.208;2023-03-01T03:30:16;0.30;99.90
18091;DHT22;9172;49.948;9.208;2023-03-01T03:32:46;0.40;99.90
18091;DHT22;9172;49.948;9.208;2023-03-01T03:35:20;0.40;99.90
18091;DHT22;9172;49.948;9.208;2023-03-01T03:37:52;0.50;99.90
18091;DHT22;9172;49.948;9.208;2023-03-01T03:40:32;0.50;99.90
18091;DHT22;9172;49.948;9.208;2023-03-01T03:43:00;0.50;99.90
18091;DHT22;9172;49.948;9.208;2023-03-01T03:45:29;0.50;99.90
18091;DHT22;9172;49.948;9.208;2023-03-01T03:48:00;0.60;99.90
18091;DHT22;9172;49.948;9.208;2023-03-01T03:50:30;0.70;99.90
18091;DHT22;9172;49.948;9.208;2023-03-01T03:53:01;0.70;99.90
18091;DHT22;9172;49.948;9.208;2023-03-01T03:55:32;0.70;99.90
18091;DHT22;9172;49.948;9.208;2023-03-01T03:58:02;0.80;99.90
18091;DHT22;9172;49.948;9.208;2023-03-01T04:00:34;0.80;99.90
18091;DHT22;9172;49.948;9.208;2023-03-01T04:03:04;0.80;99.90
18091;DHT22;9172;49.948;9.208;2023-03-01T04:05:32;0.80;99.90
18091;DHT22;9172;49.948;9.208;2023-03-01T04:08:02;0.80;99.90
18091;DHT22;9172;49.948;9.208;2023-03-01T04:10:32;0.70;99.90
18091;DHT22;9172;49.948;9.208;2023-03-01T04:13:01;0.70;99.90
18091;DHT22;9172;49.948;9.208;2023-03-01T04:15:32;0.70;99.90
18091;DHT22;9172;49.948;9.208;2023-03-01T04:18:02;0.70;99.90
18091;DHT22;9172;49.948;9.208;2023-03-01T04:20:32;0.70;99.90
18091;DHT22;9172;49.948;9.208;2023-03-01T04:23:03;0.70;99.90
18091;DHT22;9172;49.948;9.208;2023-03-01T04:25:39;0.70;99.90
18091;DHT22;9172;49.948;9.208;2023-03-01T04:28:08;0.80;99.90
18091;DHT22;9172;49.948;9.208;2023-03-01T04:30:38;0.80;99.90
18091;DHT22;9172;49.948;9.208;2023-03-01T04:33:08;0.80;99.90
18091;DHT22;9172;49.948;9.208;2023-03-01T04:35:38;0.80;99.90
18091;DHT22;9172;49.948;9.208;2023-03-01T04:38:08;0.80;99.90
18091;DHT22;9172;49.948;9.208;2023-03-01T04:40:37;0.80;99.90
18091;DHT22;9172;49.948;9.208;2023-03-01T04:43:05;0.80;99.90
18091;DHT22;9172;49.948;9.208;2023-03-01T04:45:34;0.90;99.90
18091;DHT22;9172;49.948;9.208;2023-03-01T04:48:04;0.90;99.90
18091;DHT22;9172;49.948;9.208;2023-03-01T04:50:33;0.90;99.90
18091;DHT22;9172;49.948;9.208;2023-03-01T04:53:01;0.80;99.90
18091;DHT22;9172;49.948;9.208;2023-03-01T04:55:30;0.70;99.90
18091;DHT22;9172;49.948;9.208;2023-03-01T04:57:59;0.60;99.90
18091;DHT22;9172;49.948;9.208;2023-03-01T05:00:28;0.70;99.90
18091;DHT22;9172;49.948;9.208;2023-03-01T05:02:59;0.70;99.90
18091;DHT22;9172;49.948;9.208;2023-03-01T05:05:30;0.70;99.90
18091;DHT22;9172;49.948;9.208;2023-03-01T05:08:01;0.70;99.90
18091;DHT22;9172;49.948;9.208;2023-03-01T05:10:31;0.60;99.90
18091;DHT22;9172;49.948;9.208;2023-03-01T05:13:01;0.60;99.90
18091;DHT22;9172;49.948;9.208;2023-03-01T05:15:31;0.50;99.90
18091;DHT22;9172;49.948;9.208;2023-03-01T05:18:00;0.50;99.90
18091;DHT22;9172;49.948;9.208;2023-03-01T05:20:30;0.50;99.90
18091;DHT22;9172;49.948;9.208;2023-03-01T05:23:00;0.60;99.90
18091;DHT22;9172;49.948;9.208;2023-03-01T05:25:30;0.60;99.90
18091;DHT22;9172;49.948;9.208;2023-03-01T05:28:00;0.60;99.90
18091;DHT22;9172;49.948;9.208;2023-03-01T05:30:32;0.50;99.90
18091;DHT22;9172;49.948;9.208;2023-03-01T05:33:01;0.50;99.90
18091;DHT22;9172;49.948;9.208;2023-03-01T05:35:32;0.40;99.90
18091;DHT22;9172;49.948;9.208;2023-03-01T05:38:01;0.40;99.90
18091;DHT22;9172;49.948;9.208;2023-03-01T05:40:32;0.40;99.90
18091;DHT22;9172;49.948;9.208;2023-03-01T05:43:01;0.50;99.90
18091;DHT22;9172;49.948;9.208;2023-03-01T05:45:35;0.50;99.90
18091;DHT22;9172;49.948;9.208;2023-03-01T05:48:05;0.50;99.90
18091;DHT22;9172;49.948;9.208;2023-03-01T05:50:35;0.60;99.90
18091;DHT22;9172;49.948;9.208;2023-03-01T05:53:07;0.70;99.90
18091;DHT22;9172;49.948;9.208;2023-03-01T05:55:39;0.70;99.90
18091;DHT22;9172;49.948;9.208;2023-03-01T05:58:11;0.70;99.90
18091;DHT22;9172;49.948;9.208;2023-03-01T06:00:42;0.70;99.90
18091;DHT22;9172;49.948;9.208;2023-03-01T06:03:13;0.70;99.90
18091;DHT22;9172;49.948;9.208;2023-03-01T06:05:43;0.70;99.90
18091;DHT22;9172;49.948;9.208;2023-03-01T06:08:12;0.70;99.90
18091;DHT22;9172;49.948;9.208;2023-03-01T06:10:41;0.70;99.90
18091;DHT22;9172;49.948;9.208;2023-03-01T06:13:09;0.70;99.90
18091;DHT22;9172;49.948;9.208;2023-03-01T06:15:38;0.80;99.90
18091;DHT22;9172;49.948;9.208;2023-03-01T06:18:06;0.80;99.90
18091;DHT22;9172;49.948;9.208;2023-03-01T06:20:37;0.80;99.90
18091;DHT22;9172;49.948;9.208;2023-03-01T06:23:08;0.90;99.90
18091;DHT22;9172;49.948;9.208;2023-03-01T06:25:36;0.90;99.90
18091;DHT22;9172;49.948;9.208;2023-03-01T06:28:05;0.90;99.90
18091;DHT22;9172;49.948;9.208;2023-03-01T06:30:35;0.90;99.90
18091;DHT22;9172;49.948;9.208;2023-03-01T06:33:04;0.90;99.90
18091;DHT22;9172;49.948;9.208;2023-03-01T06:35:33;1.00;99.90
18091;DHT22;9172;49.948;9.208;2023-03-01T06:38:03;1.00;99.90
18091;DHT22;9172;49.948;9.208;2023-03-01T06:40:32;1.00;99.90
18091;DHT22;9172;49.948;9.208;2023-03-01T06:43:02;0.90;99.90
18091;DHT22;9172;49.948;9.208;2023-03-01T06:45:31;0.90;99.90
18091;DHT22;9172;49.948;9.208;2023-03-01T06:48:03;1.00;99.90
18091;DHT22;9172;49.948;9.208;2023-03-01T06:50:32;1.00;99.90
18091;DHT22;9172;49.948;9.208;2023-03-01T06:53:02;1.10;99.90
18091;DHT22;9172;49.948;9.208;2023-03-01T06:55:32;1.10;99.90
18091;DHT22;9172;49.948;9.208;2023-03-01T06:58:02;1.00;99.90
18091;DHT22;9172;49.948;9.208;2023-03-01T07:00:32;1.00;99.90
18091;DHT22;9172;49.948;9.208;2023-03-01T07:03:02;1.10;99.90
18091;DHT22;9172;49.948;9.208;2023-03-01T07:05:32;1.20;99.90
18091;DHT22;9172;49.948;9.208;2023-03-01T07:08:02;1.20;99.90
18091;DHT22;9172;49.948;9.208;2023-03-01T07:10:31;1.30;99.90
18091;DHT22;9172;49.948;9.208;2023-03-01T07:13:00;1.30;99.90
18091;DHT22;9172;49.948;9.208;2023-03-01T07:15:29;1.40;99.90
18091;DHT22;9172;49.948;9.208;2023-03-01T07:17:57;1.50;99.90
18091;DHT22;9172;49.948;9.208;2023-03-01T07:20:27;1.50;99.90
18091;DHT22;9172;49.948;9.208;2023-03-01T07:22:56;1.60;99.90
18091;DHT22;9172;49.948;9.208;2023-03-01T07:25:25;1.60;99.90
18091;DHT22;9172;49.948;9.208;2023-03-01T07:27:54;1.60;99.90
18091;DHT22;9172;49.948;9.208;2023-03-01T07:30:23;1.70;99.90
18091;DHT22;9172;49.948;9.208;2023-03-01T07:32:53;1.70;99.90
18091;DHT22;9172;49.948;9.208;2023-03-01T07:35:22;1.90;99.90
18091;DHT22;9172;49.948;9.208;2023-03-01T07:37:50;1.90;99.90
18091;DHT22;9172;49.948;9.208;2023-03-01T07:40:20;1.90;99.90
18091;DHT22;9172;49.948;9.208;2023-03-01T07:42:49;2.00;99.90
18091;DHT22;9172;49.948;9.208;2023-03-01T07:45:18;2.10;99.90
18091;DHT22;9172;49.948;9.208;2023-03-01T07:47:47;2.10;99.90
18091;DHT22;9172;49.948;9.208;2023-03-01T07:50:16;2.20;99.90
18091;DHT22;9172;49.948;9.208;2023-03-01T07:52:46;2.30;99.90
18091;DHT22;9172;49.948;9.208;2023-03-01T07:55:16;2.20;99.90
18091;DHT22;9172;49.948;9.208;2023-03-01T07:57:45;2.20;99.90
18091;DHT22;9172;49.948;9.208;2023-03-01T08:00:17;2.20;99.90
18091;DHT22;9172;49.948;9.208;2023-03-01T08:02:46;2.20;99.90
18091;DHT22;9172;49.948;9.208;2023-03-01T08:05:15;2.40;99.90
18091;DHT22;9172;49.948;9.208;2023-03-01T08:07:44;2.40;99.90
18091;DHT22;9172;49.948;9.208;2023-03-01T08:10:13;2.50;99.90
18091;DHT22;9172;49.948;9.208;2023-03-01T08:12:41;2.60;99.90
18091;DHT22;9172;49.948;9.208;2023-03-01T08:15:11;2.60;99.90
18091;DHT22;9172;49.948;9.208;2023-03-01T08:17:41;2.70;99.90
18091;DHT22;9172;49.948;9.208;2023-03-01T08:20:11;2.70;99.90
18091;DHT22;9172;49.948;9.208;2023-03-01T08:22:40;2.70;99.90
18091;DHT22;9172;49.948;9.208;2023-03-01T08:25:09;2.70;99.90
18091;DHT22;9172;49.948;9.208;2023-03-01T08:27:38;2.70;99.90
18091;DHT22;9172;49.948;9.208;2023-03-01T08:30:10;2.80;99.90
18091;DHT22;9172;49.948;9.208;2023-03-01T08:32:39;2.90;99.90
18091;DHT22;9172;49.948;9.208;2023-03-01T08:35:09;3.00;99.90
18091;DHT22;9172;49.948;9.208;2023-03-01T08:37:39;3.00;99.90
18091;DHT22;9172;49.948;9.208;2023-03-01T08:40:10;3.00;99.90
18091;DHT22;9172;49.948;9.208;2023-03-01T08:42:40;3.10;99.90
18091;DHT22;9172;49.948;9.208;2023-03-01T08:45:12;3.20;99.90
18091;DHT22;9172;49.948;9.208;2023-03-01T08:47:43;3.30;99.90
18091;DHT22;9172;49.948;9.208;2023-03-01T08:50:12;3.40;99.90
18091;DHT22;9172;49.948;9.208;2023-03-01T08:52:41;3.50;99.90
18091;DHT22;9172;49.948;9.208;2023-03-01T08:55:11;3.50;99.90
18091;DHT22;9172;49.948;9.208;2023-03-01T08:57:40;3.60;99.90
18091;DHT22;9172;49.948;9.208;2023-03-01T09:00:11;3.70;99.90
18091;DHT22;9172;49.948;9.208;2023-03-01T09:02:42;3.80;99.90
18091;DHT22;9172;49.948;9.208;2023-03-01T09:05:11;3.90;99.90
18091;DHT22;9172;49.948;9.208;2023-03-01T09:07:40;4.00;99.90
18091;DHT22;9172;49.948;9.208;2023-03-01T09:10:11;4.00;99.90
18091;DHT22;9172;49.948;9.208;2023-03-01T09:12:40;4.00;99.90
18091;DHT22;9172;49.948;9.208;2023-03-01T09:15:10;4.10;99.90
18091;DHT22;9172;49.948;9.208;2023-03-01T09:17:39;4.20;99.90
18091;DHT22;9172;49.948;9.208;2023-03-01T09:20:10;4.30;99.90
18091;DHT22;9172;49.948;9.208;2023-03-01T09:22:38;4.40;99.90
18091;DHT22;9172;49.948;9.208;2023-03-01T09:25:08;4.50;99.90
18091;DHT22;9172;49.948;9.208;2023-03-01T09:27:37;4.50;99.90
18091;DHT22;9172;49.948;9.208;2023-03-01T09:30:09;4.50;99.90
18091;DHT22;9172;49.948;9.208;2023-03-01T09:32:38;4.60;99.90
18091;DHT22;9172;49.948;9.208;2023-03-01T09:35:09;4.60;99.90
18091;DHT22;9172;49.948;9.208;2023-03-01T09:37:40;4.70;99.90
18091;DHT22;9172;49.948;9.208;2023-03-01T09:40:15;4.80;99.90
18091;DHT22;9172;49.948;9.208;2023-03-01T09:45:34;4.80;99.90
18091;DHT22;9172;49.948;9.208;2023-03-01T09:48:05;4.70;99.90
18091;DHT22;9172;49.948;9.208;2023-03-01T09:50:38;4.80;99.90
18091;DHT22;9172;49.948;9.208;2023-03-01T09:53:09;4.80;99.90
18091;DHT22;9172;49.948;9.208;2023-03-01T09:55:42;4.90;99.90
18091;DHT22;9172;49.948;9.208;2023-03-01T09:58:27;4.90;99.90
18091;DHT22;9172;49.948;9.208;2023-03-01T10:00:58;5.10;99.90
18091;DHT22;9172;49.948;9.208;2023-03-01T10:03:31;5.00;99.90
18091;DHT22;9172;49.948;9.208;2023-03-01T10:06:04;5.10;99.90
18091;DHT22;9172;49.948;9.208;2023-03-01T10:08:39;5.20;99.90
18091;DHT22;9172;49.948;9.208;2023-03-01T10:11:19;5.40;99.90
18091;DHT22;9172;49.948;9.208;2023-03-01T10:13:52;5.60;99.90
18091;DHT22;9172;49.948;9.208;2023-03-01T10:16:26;5.30;99.90
18091;DHT22;9172;49.948;9.208;2023-03-01T10:18:55;5.20;99.90
18091;DHT22;9172;49.948;9.208;2023-03-01T10:21:27;5.30;99.90
18091;DHT22;9172;49.948;9.208;2023-03-01T10:24:04;5.40;99.90
18091;DHT22;9172;49.948;9.208;2023-03-01T10:26:40;5.50;99.90
18091;DHT22;9172;49.948;9.208;2023-03-01T10:29:14;5.50;99.90
18091;DHT22;9172;49.948;9.208;2023-03-01T10:31:43;5.70;99.90
18091;DHT22;9172;49.948;9.208;2023-03-01T10:34:15;5.90;99.90
18091;DHT22;9172;49.948;9.208;2023-03-01T10:36:48;5.90;99.90
18091;DHT22;9172;49.948;9.208;2023-03-01T10:39:18;6.10;99.90
18091;DHT22;9172;49.948;9.208;2023-03-01T10:41:59;6.20;99.90
18091;DHT22;9172;49.948;9.208;2023-03-01T10:44:42;6.30;99.90
18091;DHT22;9172;49.948;9.208;2023-03-01T10:47:19;6.40;99.90
18091;DHT22;9172;49.948;9.208;2023-03-01T10:50:03;6.50;99.90
18091;DHT22;9172;49.948;9.208;2023-03-01T10:52:40;6.40;99.90
18091;DHT22;9172;49.948;9.208;2023-03-01T10:55:19;6.40;99.90
18091;DHT22;9172;49.948;9.208;2023-03-01T10:57:47;6.50;99.90
18091;DHT22;9172;49.948;9.208;2023-03-01T11:00:27;6.50;99.20
18091;DHT22;9172;49.948;9.208;2023-03-01T11:03:12;6.40;99.90
18091;DHT22;9172;49.948;9.208;2023-03-01T11:05:56;6.50;99.90
18091;DHT22;9172;49.948;9.208;2023-03-01T11:08:40;6.70;99.90
18091;DHT22;9172;49.948;9.208;2023-03-01T11:11:23;6.70;99.00
18091;DHT22;9172;49.948;9.208;2023-03-01T11:13:55;6.70;99.00
18091;DHT22;9172;49.948;9.208;2023-03-01T11:16:31;6.80;99.10
18091;DHT22;9172;49.948;9.208;2023-03-01T11:19:12;6.90;98.70
18091;DHT22;9172;49.948;9.208;2023-03-01T11:21:36;6.90;98.90
18091;DHT22;9172;49.948;9.208;2023-03-01T11:24:09;6.90;98.30
18091;DHT22;9172;49.948;9.208;2023-03-01T11:26:41;6.90;98.20
18091;DHT22;9172;49.948;9.208;2023-03-01T11:29:16;7.00;98.30
18091;DHT22;9172;49.948;9.208;2023-03-01T11:31:47;7.00;97.80
18091;DHT22;9172;49.948;9.208;2023-03-01T11:34:19;7.10;97.80
18091;DHT22;9172;49.948;9.208;2023-03-01T11:36:52;7.10;97.80
18091;DHT22;9172;49.948;9.208;2023-03-01T11:39:26;7.10;97.50
18091;DHT22;9172;49.948;9.208;2023-03-01T11:42:02;7.00;97.70
18091;DHT22;9172;49.948;9.208;2023-03-01T11:44:33;7.00;97.80
18091;DHT22;9172;49.948;9.208;2023-03-01T11:47:18;7.10;98.00
18091;DHT22;9172;49.948;9.208;2023-03-01T11:53:03;7.10;97.80
18091;DHT22;9172;49.948;9.208;2023-03-01T11:55:44;7.10;98.10
18091;DHT22;9172;49.948;9.208;2023-03-01T11:58:37;7.20;97.90
18091;DHT22;9172;49.948;9.208;2023-03-01T12:01:14;7.30;98.00
18091;DHT22;9172;49.948;9.208;2023-03-01T12:06:59;7.20;98.30
18091;DHT22;9172;49.948;9.208;2023-03-01T12:09:38;7.30;97.80
18091;DHT22;9172;49.948;9.208;2023-03-01T12:12:21;7.40;97.70
18091;DHT22;9172;49.948;9.208;2023-03-01T12:14:55;7.40;97.40
18091;DHT22;9172;49.948;9.208;2023-03-01T12:17:39;7.10;96.60
18091;DHT22;9172;49.948;9.208;2023-03-01T12:20:23;6.80;96.70
18091;DHT22;9172;49.948;9.208;2023-03-01T12:23:18;6.60;97.20
18091;DHT22;9172;49.948;9.208;2023-03-01T12:25:49;6.50;97.80
18091;DHT22;9172;49.948;9.208;2023-03-01T12:28:44;6.70;98.70
18091;DHT22;9172;49.948;9.208;2023-03-01T12:31:38;6.90;98.30
18091;DHT22;9172;49.948;9.208;2023-03-01T12:34:13;7.00;97.80
18091;DHT22;9172;49.948;9.208;2023-03-01T12:36:54;7.10;98.20
18091;DHT22;9172;49.948;9.208;2023-03-01T12:39:32;7.00;96.80
18091;DHT22;9172;49.948;9.208;2023-03-01T12:42:05;6.90;97.50
18091;DHT22;9172;49.948;9.208;2023-03-01T12:44:52;6.90;97.70
18091;DHT22;9172;49.948;9.208;2023-03-01T12:47:34;7.00;98.40
18091;DHT22;9172;49.948;9.208;2023-03-01T12:50:04;7.00;97.70
18091;DHT22;9172;49.948;9.208;2023-03-01T12:52:37;6.90;97.40
18091;DHT22;9172;49.948;9.208;2023-03-01T12:55:15;6.90;97.60
18091;DHT22;9172;49.948;9.208;2023-03-01T12:57:41;6.90;97.50
18091;DHT22;9172;49.948;9.208;2023-03-01T13:00:27;6.90;97.90
18091;DHT22;9172;49.948;9.208;2023-03-01T13:02:52;7.00;97.70
18091;DHT22;9172;49.948;9.208;2023-03-01T13:05:33;7.10;98.10
18091;DHT22;9172;49.948;9.208;2023-03-01T13:08:05;7.20;97.40
18091;DHT22;9172;49.948;9.208;2023-03-01T13:10:40;7.30;97.40
18091;DHT22;9172;49.948;9.208;2023-03-01T13:13:19;7.40;97.70
18091;DHT22;9172;49.948;9.208;2023-03-01T13:18:33;7.40;97.30
18091;DHT22;9172;49.948;9.208;2023-03-01T13:23:40;7.50;97.60
18091;DHT22;9172;49.948;9.208;2023-03-01T13:26:14;7.50;97.30
18091;DHT22;9172;49.948;9.208;2023-03-01T13:28:54;7.60;97.30
18091;DHT22;9172;49.948;9.208;2023-03-01T13:31:56;7.60;97.50
18091;DHT22;9172;49.948;9.208;2023-03-01T13:34:48;7.60;97.50
18091;DHT22;9172;49.948;9.208;2023-03-01T13:37:25;7.60;97.10
18091;DHT22;9172;49.948;9.208;2023-03-01T13:42:44;7.50;97.40
18091;DHT22;9172;49.948;9.208;2023-03-01T13:45:20;7.60;97.40
18091;DHT22;9172;49.948;9.208;2023-03-01T13:47:53;7.60;97.30
18091;DHT22;9172;49.948;9.208;2023-03-01T13:50:27;7.60;97.50
18091;DHT22;9172;49.948;9.208;2023-03-01T13:52:59;7.60;96.60
18091;DHT22;9172;49.948;9.208;2023-03-01T13:55:36;7.60;97.00
18091;DHT22;9172;49.948;9.208;2023-03-01T13:58:14;7.60;97.10
18091;DHT22;9172;49.948;9.208;2023-03-01T14:00:44;7.70;96.70
18091;DHT22;9172;49.948;9.208;2023-03-01T14:03:16;7.70;96.60
18091;DHT22;9172;49.948;9.208;2023-03-01T14:14:32;7.80;97.30
18091;DHT22;9172;49.948;9.208;2023-03-01T14:17:13;7.70;97.20
18091;DHT22;9172;49.948;9.208;2023-03-01T14:19:45;7.80;97.10
18091;DHT22;9172;49.948;9.208;2023-03-01T14:22:17;7.80;97.40
18091;DHT22;9172;49.948;9.208;2023-03-01T14:24:49;7.90;97.20
18091;DHT22;9172;49.948;9.208;2023-03-01T14:27:20;7.90;97.30
18091;DHT22;9172;49.948;9.208;2023-03-01T14:29:56;7.90;97.40
18091;DHT22;9172;49.948;9.208;2023-03-01T14:32:27;7.90;96.90
18091;DHT22;9172;49.948;9.208;2023-03-01T14:34:57;7.90;96.80
18091;DHT22;9172;49.948;9.208;2023-03-01T14:37:28;8.00;96.70
18091;DHT22;9172;49.948;9.208;2023-03-01T14:39:58;7.90;96.80
18091;DHT22;9172;49.948;9.208;2023-03-01T14:42:31;7.90;96.70
18091;DHT22;9172;49.948;9.208;2023-03-01T14:45:02;7.90;97.00
18091;DHT22;9172;49.948;9.208;2023-03-01T14:47:33;8.00;96.20
18091;DHT22;9172;49.948;9.208;2023-03-01T14:50:05;7.90;97.10
18091;DHT22;9172;49.948;9.208;2023-03-01T14:52:37;7.90;96.50
18091;DHT22;9172;49.948;9.208;2023-03-01T14:57:51;7.90;96.80
18091;DHT22;9172;49.948;9.208;2023-03-01T15:00:22;7.90;96.40
18091;DHT22;9172;49.948;9.208;2023-03-01T15:02:52;8.00;96.70
18091;DHT22;9172;49.948;9.208;2023-03-01T15:05:27;7.90;97.00
18091;DHT22;9172;49.948;9.208;2023-03-01T15:07:56;7.90;97.10
18091;DHT22;9172;49.948;9.208;2023-03-01T15:10:28;7.90;96.50
18091;DHT22;9172;49.948;9.208;2023-03-01T15:13:09;8.00;96.90
18091;DHT22;9172;49.948;9.208;2023-03-01T15:15:35;7.90;97.00
18091;DHT22;9172;49.948;9.208;2023-03-01T15:18:12;8.00;96.60
18091;DHT22;9172;49.948;9.208;2023-03-01T15:20:42;8.00;97.00
18091;DHT22;9172;49.948;9.208;2023-03-01T15:23:22;8.00;97.00
18091;DHT22;9172;49.948;9.208;2023-03-01T15:25:52;7.90;97.20
18091;DHT22;9172;49.948;9.208;2023-03-01T15:28:26;8.00;96.70
18091;DHT22;9172;49.948;9.208;2023-03-01T15:31:00;8.00;96.90
18091;DHT22;9172;49.948;9.208;2023-03-01T15:33:34;8.00;96.70
18091;DHT22;9172;49.948;9.208;2023-03-01T15:36:29;8.00;96.90
18091;DHT22;9172;49.948;9.208;2023-03-01T15:38:37;8.10;96.20
18091;DHT22;9172;49.948;9.208;2023-03-01T15:41:23;8.10;97.10
18091;DHT22;9172;49.948;9.208;2023-03-01T15:43:54;8.00;97.20
18091;DHT22;9172;49.948;9.208;2023-03-01T15:46:29;7.90;97.40
18091;DHT22;9172;49.948;9.208;2023-03-01T15:49:00;7.90;97.30
18091;DHT22;9172;49.948;9.208;2023-03-01T15:51:33;7.90;97.20
18091;DHT22;9172;49.948;9.208;2023-03-01T15:54:06;7.90;96.70
18091;DHT22;9172;49.948;9.208;2023-03-01T15:56:35;7.90;97.00
18091;DHT22;9172;49.948;9.208;2023-03-01T15:59:03;7.90;97.50
18091;DHT22;9172;49.948;9.208;2023-03-01T16:01:34;7.80;97.80
18091;DHT22;9172;49.948;9.208;2023-03-01T16:04:03;7.70;97.90
18091;DHT22;9172;49.948;9.208;2023-03-01T16:06:32;7.70;98.10
18091;DHT22;9172;49.948;9.208;2023-03-01T16:09:02;7.80;97.00
18091;DHT22;9172;49.948;9.208;2023-03-01T16:11:30;7.80;96.80
18091;DHT22;9172;49.948;9.208;2023-03-01T16:13:59;7.80;97.00
18091;DHT22;9172;49.948;9.208;2023-03-01T16:16:29;7.70;96.90
18091;DHT22;9172;49.948;9.208;2023-03-01T16:18:57;7.70;97.00
18091;DHT22;9172;49.948;9.208;2023-03-01T16:21:27;7.60;97.00
18091;DHT22;9172;49.948;9.208;2023-03-01T16:23:55;7.60;97.10
18091;DHT22;9172;49.948;9.208;2023-03-01T16:26:24;7.60;97.30
18091;DHT22;9172;49.948;9.208;2023-03-01T16:28:54;7.50;97.40
18091;DHT22;9172;49.948;9.208;2023-03-01T16:31:24;7.50;97.30
18091;DHT22;9172;49.948;9.208;2023-03-01T16:33:54;7.50;97.30
18091;DHT22;9172;49.948;9.208;2023-03-01T16:36:25;7.40;97.40
18091;DHT22;9172;49.948;9.208;2023-03-01T16:38:56;7.40;97.40
18091;DHT22;9172;49.948;9.208;2023-03-01T16:41:26;7.40;97.70
18091;DHT22;9172;49.948;9.208;2023-03-01T16:43:56;7.40;97.20
18091;DHT22;9172;49.948;9.208;2023-03-01T16:49:03;7.30;97.70
18091;DHT22;9172;49.948;9.208;2023-03-01T16:51:33;7.30;97.60
18091;DHT22;9172;49.948;9.208;2023-03-01T16:54:03;7.30;97.60
18091;DHT22;9172;49.948;9.208;2023-03-01T16:56:32;7.20;97.60
18091;DHT22;9172;49.948;9.208;2023-03-01T16:59:02;7.20;97.40
18091;DHT22;9172;49.948;9.208;2023-03-01T17:01:31;7.10;97.60
18091;DHT22;9172;49.948;9.208;2023-03-01T17:04:03;7.10;97.50
18091;DHT22;9172;49.948;9.208;2023-03-01T17:06:32;7.10;97.70
18091;DHT22;9172;49.948;9.208;2023-03-01T17:09:00;7.00;97.60